createdAt,value
2022-09-28T00:02:09.598Z,99309.63
2022-09-28T00:04:53.236Z,99310.69
2022-09-28T00:07:36.636Z,99312.28
2022-09-28T00:10:23.821Z,99314.81
2022-09-28T00:13:08.175Z,99306.88
2022-09-28T00:16:08.332Z,99306.44
2022-09-28T00:18:52.314Z,99312.94
2022-09-28T00:21:39.607Z,99312.69
2022-09-28T00:24:27.279Z,99311.53
2022-09-28T00:27:11.187Z,99310.25
2022-09-28T00:29:55.171Z,99306.13
2022-09-28T00:32:38.671Z,99296.53
2022-09-28T00:35:22.161Z,99301.00
2022-09-28T00:38:09.332Z,99305.53
2022-09-28T00:40:52.897Z,99302.94
2022-09-28T00:43:36.404Z,99298.66
2022-09-28T00:46:36.540Z,99294.19
2022-09-28T00:49:33.325Z,99290.38
2022-09-28T00:52:38.737Z,99283.53
2022-09-28T00:55:44.487Z,99279.69
2022-09-28T00:58:33.529Z,99283.97
2022-09-28T01:01:17.419Z,99283.03
2022-09-28T01:04:02.810Z,99283.81
2022-09-28T01:06:47.495Z,99282.91
2022-09-28T01:09:33.035Z,99274.44
2022-09-28T01:12:16.495Z,99284.22
2022-09-28T01:15:02.279Z,99288.94
2022-09-28T01:18:19.666Z,99280.38
2022-09-28T01:21:27.160Z,99281.19
2022-09-28T01:24:42.529Z,99273.53
2022-09-28T01:27:58.792Z,99271.59
2022-09-28T01:31:00.850Z,99266.56
2022-09-28T01:34:28.167Z,99265.75
2022-09-28T01:37:18.594Z,99273.94
2022-09-28T01:40:05.224Z,99265.16
2022-09-28T01:43:08.005Z,99264.53
2022-09-28T01:46:00.943Z,99259.91
2022-09-28T01:48:50.713Z,99258.72
2022-09-28T01:51:52.676Z,99254.25
2022-09-28T01:54:53.646Z,99262.19
2022-09-28T01:57:54.040Z,99251.19
2022-09-28T02:00:45.125Z,99253.75
2022-09-28T02:03:48.932Z,99254.56
2022-09-28T02:06:42.043Z,99257.19
2022-09-28T02:09:48.765Z,99255.69
2022-09-28T02:12:54.603Z,99260.13
2022-09-28T02:15:54.136Z,99257.91
2022-09-28T02:18:37.643Z,99261.03
2022-09-28T02:22:01.068Z,99256.31
2022-09-28T02:24:54.648Z,99250.84
2022-09-28T02:27:54.083Z,99250.06
2022-09-28T02:30:41.472Z,99248.22
2022-09-28T02:33:38.389Z,99245.41
2022-09-28T02:36:26.720Z,99244.84
2022-09-28T02:39:17.056Z,99239.97
2022-09-28T02:42:27.599Z,99247.56
2022-09-28T02:45:32.477Z,99252.31
2022-09-28T02:49:21.519Z,99244.56
2022-09-28T02:52:39.417Z,99243.84
2022-09-28T02:55:31.789Z,99231.59
2022-09-28T02:58:25.502Z,99231.03
2022-09-28T03:01:23.958Z,99231.75
2022-09-28T03:04:37.693Z,99237.19
2022-09-28T03:07:36.158Z,99231.06
2022-09-28T03:10:34.887Z,99235.91
2022-09-28T03:13:18.663Z,99231.03
2022-09-28T03:16:18.301Z,99221.91
2022-09-28T03:19:04.266Z,99215.47
2022-09-28T03:21:47.742Z,99222.34
2022-09-28T03:24:31.642Z,99207.00
2022-09-28T03:27:15.042Z,99214.13
2022-09-28T03:29:58.666Z,99211.97
2022-09-28T03:32:45.556Z,99214.25
2022-09-28T03:35:29.273Z,99210.00
2022-09-28T03:38:12.696Z,99204.16
2022-09-28T03:41:01.081Z,99206.16
2022-09-28T03:43:51.011Z,99199.38
2022-09-28T03:46:34.464Z,99207.19
2022-09-28T03:49:22.563Z,99201.69
2022-09-28T03:52:06.388Z,99191.94
2022-09-28T03:54:49.804Z,99202.84
2022-09-28T03:57:33.305Z,99194.09
2022-09-28T04:00:16.775Z,99196.09
2022-09-28T04:03:00.157Z,99191.34
2022-09-28T04:05:52.295Z,99190.38
2022-09-28T04:08:35.749Z,99191.16
2022-09-28T04:11:19.883Z,99188.38
2022-09-28T04:14:04.040Z,99180.97
2022-09-28T04:16:48.246Z,99183.44
2022-09-28T04:19:33.091Z,99182.41
2022-09-28T04:22:29.620Z,99183.13
2022-09-28T04:25:13.191Z,99183.94
2022-09-28T04:28:15.077Z,99174.91
2022-09-28T04:30:58.513Z,99172.78
2022-09-28T04:33:41.995Z,99183.59
2022-09-28T04:36:25.491Z,99185.88
2022-09-28T04:39:08.921Z,99180.72
2022-09-28T04:41:52.625Z,99183.72
2022-09-28T04:44:36.102Z,99183.00
2022-09-28T04:47:25.147Z,99186.88
2022-09-28T04:50:32.021Z,99186.53
2022-09-28T04:53:36.609Z,99192.75
2022-09-28T04:56:20.026Z,99194.31
2022-09-28T04:59:03.468Z,99204.13
2022-09-28T05:01:47.609Z,99189.44
2022-09-28T05:04:49.660Z,99199.22
2022-09-28T05:07:59.274Z,99193.59
2022-09-28T05:10:43.173Z,99193.91
2022-09-28T05:13:28.210Z,99194.28
2022-09-28T05:16:14.169Z,99197.63
2022-09-28T05:19:17.698Z,99206.06
2022-09-28T05:22:06.041Z,99200.75
2022-09-28T05:24:55.087Z,99203.53
2022-09-28T05:27:40.350Z,99199.63
2022-09-28T05:30:38.628Z,99204.19
2022-09-28T05:33:44.801Z,99203.53
2022-09-28T05:36:32.557Z,99200.47
2022-09-28T05:39:16.071Z,99188.06
2022-09-28T05:41:59.522Z,99183.56
2022-09-28T05:44:43.227Z,99187.75
2022-09-28T05:47:27.545Z,99180.50
2022-09-28T05:50:12.046Z,99183.03
2022-09-28T05:53:08.848Z,99180.28
2022-09-28T05:55:57.130Z,99175.13
2022-09-28T05:58:40.626Z,99183.44
2022-09-28T06:01:25.322Z,99166.25
2022-09-28T06:04:10.051Z,99162.81
2022-09-28T06:06:53.659Z,99171.47
2022-09-28T06:09:37.877Z,99167.81
2022-09-28T06:12:36.896Z,99158.66
2022-09-28T06:15:28.763Z,99165.66
2022-09-28T06:18:15.024Z,99157.75
2022-09-28T06:21:17.363Z,99158.66
2022-09-28T06:24:05.104Z,99155.66
2022-09-28T06:26:48.724Z,99162.19
2022-09-28T06:29:32.867Z,99157.78
2022-09-28T06:32:16.325Z,99149.16
2022-09-28T06:35:02.966Z,99150.47
2022-09-28T06:37:46.665Z,99147.63
2022-09-28T06:40:30.729Z,99154.50
2022-09-28T06:43:15.458Z,99155.09
2022-09-28T06:46:25.534Z,99150.84
2022-09-28T06:49:30.278Z,99144.19
2022-09-28T06:52:32.319Z,99133.22
2022-09-28T06:55:30.311Z,99137.72
2022-09-28T06:58:19.818Z,99138.22
2022-09-28T07:01:04.415Z,99128.41
2022-09-28T07:03:57.967Z,99137.56
2022-09-28T07:07:01.759Z,99137.56
2022-09-28T07:10:13.436Z,99138.78
2022-09-28T07:13:42.131Z,99141.13
2022-09-28T07:16:27.662Z,99148.81
2022-09-28T07:19:14.617Z,99140.09
2022-09-28T07:22:04.814Z,99142.50
2022-09-28T07:24:49.671Z,99140.94
2022-09-28T07:27:57.388Z,99136.66
2022-09-28T07:31:06.635Z,99147.00
2022-09-28T07:34:24.116Z,99145.56
2022-09-28T07:37:18.922Z,99156.19
2022-09-28T07:40:24.339Z,99158.38
2022-09-28T07:43:07.888Z,99151.09
2022-09-28T07:45:54.925Z,99160.00
2022-09-28T07:48:43.324Z,99157.50
2022-09-28T07:51:47.591Z,99161.94
2022-09-28T07:54:39.818Z,99153.22
2022-09-28T07:57:41.890Z,99146.50
2022-09-28T08:00:39.216Z,99148.16
2022-09-28T08:03:22.641Z,99145.66
2022-09-28T08:06:09.904Z,99140.31
2022-09-28T08:08:56.390Z,99146.56
2022-09-28T08:11:46.919Z,99154.28
2022-09-28T08:14:52.312Z,99160.06
2022-09-28T08:17:50.226Z,99159.88
2022-09-28T08:20:55.196Z,99170.22
2022-09-28T08:23:38.804Z,99167.63
2022-09-28T08:26:23.051Z,99165.28
2022-09-28T08:29:06.684Z,99159.41
2022-09-28T08:32:02.698Z,99157.00
2022-09-28T08:35:08.743Z,99161.59
2022-09-28T08:38:03.952Z,99166.69
2022-09-28T08:41:46.541Z,99171.22
2022-09-28T08:45:05.247Z,99170.06
2022-09-28T08:48:51.747Z,99173.31
2022-09-28T08:52:26.603Z,99177.63
2022-09-28T08:55:40.347Z,99176.09
2022-09-28T08:58:30.483Z,99172.03
2022-09-28T09:01:19.567Z,99177.38
2022-09-28T09:04:06.752Z,99172.53
2022-09-28T09:07:48.652Z,99181.94
2022-09-28T09:11:01.658Z,99168.56
2022-09-28T09:14:14.058Z,99174.31
2022-09-28T09:17:15.832Z,99165.84
2022-09-28T09:20:33.584Z,99169.41
2022-09-28T09:24:16.390Z,99170.59
2022-09-28T09:27:54.328Z,99165.84
2022-09-28T09:31:22.714Z,99165.56
2022-09-28T09:34:52.857Z,99172.00
2022-09-28T09:38:32.796Z,99167.75
2022-09-28T09:41:47.818Z,99166.59
2022-09-28T09:44:49.683Z,99156.50
2022-09-28T09:48:09.574Z,99169.03
2022-09-28T09:51:02.986Z,99168.63
2022-09-28T09:54:00.072Z,99162.34
2022-09-28T09:57:13.070Z,99163.97
2022-09-28T10:00:17.596Z,99152.56
2022-09-28T10:03:32.615Z,99156.88
2022-09-28T10:06:36.599Z,99151.00
2022-09-28T10:09:27.993Z,99147.09
2022-09-28T10:12:23.545Z,99159.97
2022-09-28T10:15:09.317Z,99158.84
2022-09-28T10:18:11.809Z,99168.25
2022-09-28T10:21:16.790Z,99170.19
2022-09-28T10:24:49.177Z,99169.03
2022-09-28T10:27:40.669Z,99172.94
2022-09-28T10:30:25.781Z,99160.41
2022-09-28T10:33:32.143Z,99162.34
2022-09-28T10:36:15.939Z,99163.16
2022-09-28T10:39:00.416Z,99164.31
2022-09-28T10:41:52.422Z,99166.56
2022-09-28T10:45:00.326Z,99168.13
2022-09-28T10:47:55.864Z,99170.13
2022-09-28T10:50:40.857Z,99174.03
2022-09-28T10:53:31.213Z,99179.50
2022-09-28T10:56:29.971Z,99173.22
2022-09-28T10:59:31.204Z,99179.81
2022-09-28T11:02:40.111Z,99175.22
2022-09-28T11:05:30.086Z,99179.69
2022-09-28T11:08:30.426Z,99182.53
2022-09-28T11:11:21.465Z,99177.75
2022-09-28T11:14:41.861Z,99176.63
2022-09-28T11:17:40.638Z,99172.84
2022-09-28T11:20:27.812Z,99180.25
2022-09-28T11:23:30.145Z,99180.97
2022-09-28T11:26:19.222Z,99170.56
2022-09-28T11:29:04.164Z,99172.47
2022-09-28T11:32:03.669Z,99172.63
2022-09-28T11:34:59.623Z,99172.84
2022-09-28T11:38:17.184Z,99167.63
2022-09-28T11:41:44.086Z,99171.91
2022-09-28T11:44:46.520Z,99175.53
2022-09-28T11:47:49.924Z,99168.78
2022-09-28T11:50:52.291Z,99175.09
2022-09-28T11:53:52.707Z,99166.91
2022-09-28T11:56:42.506Z,99188.13
2022-09-28T11:59:42.141Z,99177.44
2022-09-28T12:03:00.737Z,99182.13
2022-09-28T12:05:57.284Z,99185.16
2022-09-28T12:08:53.493Z,99191.63
2022-09-28T12:12:24.703Z,99185.13
2022-09-28T12:15:28.395Z,99185.47
2022-09-28T12:18:47.244Z,99189.41
2022-09-28T12:21:33.515Z,99181.41
2022-09-28T12:24:38.750Z,99183.31
2022-09-28T12:27:35.070Z,99176.66
2022-09-28T12:30:22.577Z,99179.69
2022-09-28T12:33:13.414Z,99182.94
2022-09-28T12:36:30.369Z,99179.69
2022-09-28T12:39:57.670Z,99178.66
2022-09-28T12:43:09.653Z,99179.72
2022-09-28T12:46:13.739Z,99191.38
2022-09-28T12:50:13.725Z,99181.44
2022-09-28T12:53:02.341Z,99183.13
2022-09-28T12:55:56.719Z,99189.38
2022-09-28T12:59:08.071Z,99185.78
2022-09-28T13:02:41.778Z,99182.44
2022-09-28T13:05:52.469Z,99179.97
2022-09-28T13:09:15.003Z,99186.88
2022-09-28T13:12:30.222Z,99189.78
2022-09-28T13:15:39.897Z,99187.22
2022-09-28T13:19:02.332Z,99196.50
2022-09-28T13:22:10.362Z,99190.25
2022-09-28T13:25:00.156Z,99189.66
2022-09-28T13:27:53.438Z,99190.66
2022-09-28T13:30:40.331Z,99192.81
2022-09-28T13:33:35.938Z,99194.00
2022-09-28T13:36:25.103Z,99193.56
2022-09-28T13:40:06.020Z,99193.22
2022-09-28T13:43:19.421Z,99189.78
2022-09-28T13:46:27.316Z,99193.78
2022-09-28T13:49:48.121Z,99193.16
2022-09-28T13:52:47.522Z,99198.06
2022-09-28T13:55:43.119Z,99201.19
2022-09-28T13:58:38.410Z,99201.09
2022-09-28T14:01:32.633Z,99206.75
2022-09-28T14:04:47.121Z,99213.34
2022-09-28T14:07:36.400Z,99208.41
2022-09-28T14:10:49.952Z,99211.66
2022-09-28T14:13:42.805Z,99209.00
2022-09-28T14:16:32.765Z,99208.88
2022-09-28T14:19:31.397Z,99219.63
2022-09-28T14:23:09.109Z,99219.22
2022-09-28T14:26:53.273Z,99217.91
2022-09-28T14:29:39.415Z,99222.22
2022-09-28T14:32:25.659Z,99224.25
2022-09-28T14:35:18.945Z,99225.41
2022-09-28T14:38:39.092Z,99238.53
2022-09-28T14:41:38.028Z,99237.78
2022-09-28T14:44:22.221Z,99240.69
2022-09-28T14:47:33.665Z,99238.25
2022-09-28T14:50:29.852Z,99249.38
2022-09-28T14:53:25.118Z,99244.00
2022-09-28T14:56:09.521Z,99240.16
2022-09-28T14:58:58.145Z,99240.13
2022-09-28T15:02:15.078Z,99244.47
2022-09-28T15:05:19.765Z,99253.88
2022-09-28T15:08:03.391Z,99252.91
2022-09-28T15:10:51.770Z,99250.31
2022-09-28T15:13:35.210Z,99249.47
2022-09-28T15:16:24.278Z,99250.53
2022-09-28T15:19:21.125Z,99248.84
2022-09-28T15:22:17.670Z,99258.91
2022-09-28T15:25:04.026Z,99253.94
2022-09-28T15:27:54.781Z,99258.19
2022-09-28T15:30:38.353Z,99257.09
2022-09-28T15:33:54.515Z,99251.16
2022-09-28T15:36:42.525Z,99260.16
2022-09-28T15:39:35.269Z,99258.09
2022-09-28T15:42:19.970Z,99262.09
2022-09-28T15:45:07.898Z,99262.75
2022-09-28T15:48:16.660Z,99271.59
2022-09-28T15:51:10.773Z,99261.56
2022-09-28T15:54:22.548Z,99268.84
2022-09-28T15:57:06.184Z,99272.69
2022-09-28T15:59:57.041Z,99269.00
2022-09-28T16:03:16.903Z,99281.06
2022-09-28T16:06:09.877Z,99280.72
2022-09-28T16:08:53.913Z,99277.84
2022-09-28T16:11:40.913Z,99282.72
2022-09-28T16:14:27.297Z,99282.75
2022-09-28T16:17:32.804Z,99286.28
2022-09-28T16:20:34.164Z,99285.19
2022-09-28T16:23:19.592Z,99285.59
2022-09-28T16:26:09.293Z,99288.50
2022-09-28T16:28:53.424Z,99287.25
2022-09-28T16:31:38.012Z,99293.47
2022-09-28T16:34:26.958Z,99298.00
2022-09-28T16:37:34.132Z,99296.00
2022-09-28T16:40:17.639Z,99302.25
2022-09-28T16:43:05.999Z,99302.16
2022-09-28T16:45:50.287Z,99302.13
2022-09-28T16:48:43.755Z,99304.53
2022-09-28T16:51:28.629Z,99312.78
2022-09-28T16:54:38.236Z,99313.22
2022-09-28T16:57:23.361Z,99317.25
2022-09-28T17:00:14.287Z,99314.84
2022-09-28T17:02:58.590Z,99315.22
2022-09-28T17:05:42.432Z,99319.28
2022-09-28T17:08:26.803Z,99325.22
2022-09-28T17:11:24.115Z,99333.13
2022-09-28T17:14:08.921Z,99332.28
2022-09-28T17:20:13.320Z,99336.78
2022-09-28T17:22:57.009Z,99338.72
2022-09-28T17:25:41.750Z,99339.81
2022-09-28T17:28:30.411Z,99340.72
2022-09-28T17:31:18.434Z,99340.13
2022-09-28T17:34:02.267Z,99343.94
2022-09-28T17:36:48.646Z,99343.63
2022-09-28T17:39:33.420Z,99354.28
2022-09-28T17:42:17.469Z,99354.03
2022-09-28T17:45:02.122Z,99356.75
2022-09-28T17:47:45.742Z,99352.53
2022-09-28T17:50:34.179Z,99359.38
2022-09-28T17:53:18.022Z,99356.63
2022-09-28T17:56:01.733Z,99362.97
2022-09-28T17:58:45.432Z,99362.47
2022-09-28T18:01:34.523Z,99361.69
2022-09-28T18:04:47.109Z,99357.56
2022-09-28T18:07:22.910Z,99360.81
2022-09-28T18:10:07.546Z,99362.63
2022-09-28T18:12:51.502Z,99368.25
2022-09-28T18:15:35.321Z,99368.53
2022-09-28T18:18:22.035Z,99374.81
2022-09-28T18:21:09.984Z,99382.31
2022-09-28T18:23:53.826Z,99378.56
2022-09-28T18:26:37.616Z,99385.97
2022-09-28T18:29:21.484Z,99385.50
2022-09-28T18:32:05.332Z,99385.00
2022-09-28T18:34:49.142Z,99397.25
2022-09-28T18:37:40.172Z,99400.50
2022-09-28T18:40:24.072Z,99401.88
2022-09-28T18:43:08.172Z,99404.06
2022-09-28T18:45:51.888Z,99403.19
2022-09-28T18:48:39.759Z,99408.69
2022-09-28T18:51:24.487Z,99412.53
2022-09-28T18:54:08.325Z,99415.97
2022-09-28T18:56:56.440Z,99415.75
2022-09-28T18:59:40.034Z,99415.50
2022-09-28T19:02:23.706Z,99421.22
2022-09-28T19:05:07.659Z,99428.63
2022-09-28T19:07:51.272Z,99426.28
2022-09-28T19:10:34.819Z,99426.59
2022-09-28T19:13:18.366Z,99430.91
2022-09-28T19:16:08.926Z,99438.38
2022-09-28T19:18:53.794Z,99426.72
2022-09-28T19:21:37.459Z,99430.09
2022-09-28T19:24:21.269Z,99435.72
2022-09-28T19:27:04.863Z,99434.88
2022-09-28T19:29:48.377Z,99439.91
2022-09-28T19:32:32.039Z,99437.88
2022-09-28T19:35:15.750Z,99443.84
2022-09-28T19:37:59.192Z,99435.56
2022-09-28T19:40:42.759Z,99447.53
2022-09-28T19:43:27.779Z,99442.00
2022-09-28T19:46:13.304Z,99453.53
2022-09-28T19:49:01.752Z,99442.94
2022-09-28T19:52:11.605Z,99445.56
2022-09-28T19:55:00.261Z,99449.00
2022-09-28T19:57:47.906Z,99451.75
2022-09-28T20:00:31.359Z,99451.63
2022-09-28T20:03:15.344Z,99452.03
2022-09-28T20:06:01.751Z,99459.22
2022-09-28T20:08:45.288Z,99457.72
2022-09-28T20:11:30.025Z,99456.22
2022-09-28T20:14:18.662Z,99451.91
2022-09-28T20:17:02.208Z,99469.31
2022-09-28T20:19:45.889Z,99469.25
2022-09-28T20:22:31.006Z,99464.84
2022-09-28T20:25:14.846Z,99467.75
2022-09-28T20:27:58.979Z,99469.88
2022-09-28T20:30:42.672Z,99470.56
2022-09-28T20:33:28.864Z,99476.53
2022-09-28T20:36:18.146Z,99477.31
2022-09-28T20:39:02.749Z,99479.78
2022-09-28T20:41:47.494Z,99485.41
2022-09-28T20:44:31.344Z,99488.13
2022-09-28T20:47:14.898Z,99483.38
2022-09-28T20:49:58.522Z,99482.41
2022-09-28T20:52:42.114Z,99486.72
2022-09-28T20:55:25.811Z,99487.38
2022-09-28T20:58:09.510Z,99495.66
2022-09-28T21:00:53.317Z,99494.06
2022-09-28T21:03:38.528Z,99496.28
2022-09-28T21:06:28.652Z,99499.09
2022-09-28T21:09:12.562Z,99493.06
2022-09-28T21:11:56.398Z,99500.50
2022-09-28T21:14:39.959Z,99500.50
2022-09-28T21:17:23.524Z,99503.22
2022-09-28T21:20:08.143Z,99504.59
2022-09-28T21:22:51.664Z,99505.53
2022-09-28T21:25:35.431Z,99506.69
2022-09-28T21:28:18.890Z,99505.28
2022-09-28T21:31:05.825Z,99507.97
2022-09-28T21:33:50.084Z,99516.44
2022-09-28T21:36:33.975Z,99521.19
2022-09-28T21:39:18.645Z,99524.06
2022-09-28T21:42:02.090Z,99515.88
2022-09-28T21:44:45.636Z,99524.25
2022-09-28T21:47:29.905Z,99530.84
2022-09-28T21:50:14.290Z,99522.00
2022-09-28T21:52:57.874Z,99531.88
2022-09-28T21:55:42.755Z,99529.28
2022-09-28T21:58:29.812Z,99535.22
2022-09-28T22:01:19.850Z,99546.03
2022-09-28T22:04:03.360Z,99540.88
2022-09-28T22:06:47.093Z,99550.28
2022-09-28T22:09:30.626Z,99545.97
2022-09-28T22:12:14.357Z,99548.03
2022-09-28T22:14:57.977Z,99545.84
2022-09-28T22:17:41.825Z,99549.69
2022-09-28T22:20:25.461Z,99538.72
2022-09-28T22:23:09.126Z,99542.00
2022-09-28T22:26:05.865Z,99544.09
2022-09-28T22:29:01.571Z,99546.41
2022-09-28T22:31:45.019Z,99551.97
2022-09-28T22:34:31.763Z,99551.44
2022-09-28T22:37:15.218Z,99542.78
2022-09-28T22:40:00.845Z,99542.81
2022-09-28T22:42:44.447Z,99550.44
2022-09-28T22:45:28.107Z,99551.97
2022-09-28T22:48:12.911Z,99549.06
2022-09-28T22:50:56.307Z,99552.84
2022-09-28T22:53:39.721Z,99557.84
2022-09-28T22:56:24.105Z,99559.94
2022-09-28T22:59:07.645Z,99553.53
2022-09-28T23:01:51.149Z,99563.31
2022-09-28T23:04:34.679Z,99563.44
2022-09-28T23:07:18.279Z,99552.91
2022-09-28T23:10:01.776Z,99562.84
2022-09-28T23:12:45.387Z,99560.34
2022-09-28T23:15:29.614Z,99559.59
2022-09-28T23:18:12.998Z,99555.09
2022-09-28T23:21:00.002Z,99558.09
2022-09-28T23:23:46.240Z,99558.25
2022-09-28T23:26:32.792Z,99552.44
2022-09-28T23:29:16.263Z,99556.75
2022-09-28T23:31:59.777Z,99559.50
2022-09-28T23:34:43.399Z,99562.00
2022-09-28T23:37:26.827Z,99558.59
2022-09-28T23:40:10.608Z,99563.00
2022-09-28T23:42:53.986Z,99564.78
2022-09-28T23:45:37.563Z,99558.41
2022-09-28T23:48:21.035Z,99566.13
2022-09-28T23:51:04.729Z,99562.47
2022-09-28T23:53:48.172Z,99561.81
2022-09-28T23:56:31.612Z,99561.72
2022-09-28T23:59:15.125Z,99567.78
